Time;durP1;ratioP1;P1;durP2;ratioP2;P2;SDS_P1;SDS_P2;PMS_P1;PMS_P2;Temp;Humidity;BMP_temperature;BMP_pressure;BME280_temperature;BME280_humidity;BME280_pressure;Samples;Min_cycle;Max_cycle;Signal;HPM_P1;HPM_P2
2022/05/11 00:01:35;;;;;;;6.28;3.10;;;13.20;99.90;;;;;;4925902;29;20055;-76
2022/05/11 00:09:46;;;;;;;8.77;3.75;;;10.00;99.90;;;;;;5383820;23;20067;-75
2022/05/11 00:32:57;;;;;;;11.52;5.80;;;9.70;99.90;;;;;;3979761;27;20065;-82
2022/05/11 00:35:24;;;;;;;7.05;2.95;;;9.90;99.90;;;;;;4842046;29;20041;-81
2022/05/11 00:37:50;;;;;;;6.45;3.67;;;9.70;99.90;;;;;;4846233;29;20026;-84
2022/05/11 00:40:18;;;;;;;6.13;3.10;;;9.70;99.90;;;;;;4865281;29;20081;-81
2022/05/11 00:42:44;;;;;;;7.65;3.63;;;9.60;99.90;;;;;;4864602;29;20112;-82
2022/05/11 00:45:11;;;;;;;7.72;3.92;;;9.60;99.90;;;;;;4867137;29;20033;-82
2022/05/11 00:47:44;;;;;;;11.70;4.80;;;9.60;99.90;;;;;;4861729;29;20041;-77
2022/05/11 00:50:15;;;;;;;5.50;2.95;;;9.60;99.90;;;;;;4838993;29;20017;-76
2022/05/11 00:52:52;;;;;;;9.95;4.35;;;9.60;99.90;;;;;;4856757;29;20034;-76
2022/05/11 00:55:35;;;;;;;8.95;4.03;;;9.60;99.90;;;;;;4842343;29;20026;-76
2022/05/11 00:58:22;;;;;;;5.50;2.65;;;9.50;99.90;;;;;;4857588;29;20018;-76
2022/05/11 01:00:48;;;;;;;8.73;4.55;;;9.50;99.90;;;;;;4863982;29;20059;-76
2022/05/11 01:03:50;;;;;;;7.93;3.95;;;9.50;99.90;;;;;;4862396;29;20039;-76
2022/05/11 01:06:18;;;;;;;5.75;3.45;;;9.50;99.90;;;;;;4862295;29;20017;-77
2022/05/11 01:08:44;;;;;;;5.85;2.85;;;9.40;99.90;;;;;;4862079;29;20025;-76
2022/05/11 01:11:10;;;;;;;6.57;3.33;;;9.30;99.90;;;;;;4860896;29;20529;-78
2022/05/11 01:13:39;;;;;;;7.90;3.50;;;9.30;99.90;;;;;;4861163;29;20021;-77
2022/05/11 01:16:05;;;;;;;6.38;3.08;;;9.30;99.90;;;;;;4844064;29;20037;-77
2022/05/11 01:18:32;;;;;;;8.70;3.80;;;9.30;99.90;;;;;;4866058;29;20054;-81
2022/05/11 01:20:59;;;;;;;4.88;2.28;;;9.30;99.90;;;;;;4868265;29;20120;-79
2022/05/11 01:23:49;;;;;;;6.32;3.78;;;9.20;99.90;;;;;;4869255;29;20045;-77
2022/05/11 01:26:19;;;;;;;7.57;3.63;;;9.20;99.90;;;;;;4853145;29;20118;-83
2022/05/11 01:28:48;;;;;;;6.03;2.90;;;10.70;99.90;;;;;;4854593;29;20026;-77
2022/05/11 01:31:15;;;;;;;8.25;4.32;;;9.10;99.90;;;;;;4870459;29;20041;-80
2022/05/11 01:33:46;;;;;;;12.52;5.75;;;9.10;99.90;;;;;;4870667;29;20056;-77
2022/05/11 01:36:30;;;;;;;8.70;3.85;;;9.00;99.90;;;;;;4853917;29;20033;-82
2022/05/11 01:39:06;;;;;;;12.10;2.95;;;9.00;99.90;;;;;;4868536;29;20138;-80
2022/05/11 01:41:35;;;;;;;7.97;3.47;;;9.00;99.90;;;;;;4872517;29;20041;-76
2022/05/11 01:44:04;;;;;;;4.65;2.53;;;8.90;99.90;;;;;;4855174;29;20029;-78
2022/05/11 01:46:32;;;;;;;7.20;3.05;;;9.00;99.90;;;;;;4854232;29;20070;-77
2022/05/11 01:48:58;;;;;;;5.82;2.55;;;9.00;99.90;;;;;;4847076;29;20056;-77
2022/05/11 01:51:23;;;;;;;9.10;3.55;;;8.90;99.90;;;;;;4864287;29;20026;-76
2022/05/11 01:53:49;;;;;;;8.63;3.15;;;8.90;99.90;;;;;;4858696;29;20093;-78
2022/05/11 01:56:21;;;;;;;6.82;3.30;;;8.90;99.90;;;;;;4856998;29;20517;-78
2022/05/11 01:58:47;;;;;;;10.27;3.65;;;8.90;99.90;;;;;;4856834;29;20024;-77
2022/05/11 02:01:19;;;;;;;7.07;3.50;;;8.90;99.90;;;;;;4856984;29;20108;-77
2022/05/11 02:03:46;;;;;;;8.40;3.60;;;8.80;99.90;;;;;;4857148;29;20093;-76
2022/05/11 02:08:56;;;;;;;7.38;4.13;;;8.70;99.90;;;;;;4857093;29;20104;-76
2022/05/11 02:11:22;;;;;;;6.35;3.00;;;8.70;99.90;;;;;;4841019;29;20070;-76
2022/05/11 02:13:48;;;;;;;5.88;2.42;;;8.70;99.90;;;;;;4857872;29;20066;-77
2022/05/11 02:16:13;;;;;;;5.30;2.85;;;8.70;99.90;;;;;;4857639;29;20757;-76
2022/05/11 02:18:42;;;;;;;7.75;3.20;;;8.70;99.90;;;;;;4857631;29;20031;-77
2022/05/11 02:21:08;;;;;;;4.72;2.22;;;8.70;99.90;;;;;;4859582;29;20684;-79
2022/05/11 02:23:36;;;;;;;5.45;2.85;;;8.60;99.90;;;;;;4839711;29;20483;-77
2022/05/11 02:26:02;;;;;;;4.50;2.65;;;8.60;99.90;;;;;;4841882;29;20033;-81
2022/05/11 02:28:40;;;;;;;5.47;3.28;;;8.60;99.90;;;;;;4856460;29;20779;-77
2022/05/11 02:31:05;;;;;;;11.15;4.40;;;8.50;99.90;;;;;;4835717;29;20041;-76
2022/05/11 02:33:32;;;;;;;8.52;3.33;;;8.40;99.90;;;;;;4836029;29;20076;-76
2022/05/11 02:35:58;;;;;;;7.72;3.65;;;8.30;99.90;;;;;;4838661;29;20057;-76
2022/05/11 02:38:34;;;;;;;6.70;3.67;;;8.40;99.90;;;;;;4854695;29;20045;-77
2022/05/11 02:41:01;;;;;;;5.05;2.65;;;8.30;99.90;;;;;;4848867;29;20021;-76
2022/05/11 02:43:32;;;;;;;8.05;3.00;;;8.30;99.90;;;;;;4864124;29;20030;-75
2022/05/11 02:45:58;;;;;;;5.00;2.35;;;8.30;99.90;;;;;;4848981;29;20017;-75
2022/05/11 02:48:25;;;;;;;8.27;3.60;;;8.20;99.90;;;;;;4849642;29;20037;-75
2022/05/11 02:50:56;;;;;;;8.13;4.10;;;8.20;99.90;;;;;;4863674;29;20089;-76
2022/05/11 02:53:24;;;;;;;9.50;3.97;;;8.20;99.90;;;;;;4859458;29;20089;-77
2022/05/11 02:55:52;;;;;;;5.50;2.42;;;8.20;99.90;;;;;;4861435;29;20050;-77
2022/05/11 02:58:20;;;;;;;9.30;3.47;;;8.20;99.90;;;;;;4844540;29;20021;-79
2022/05/11 03:00:49;;;;;;;6.45;3.05;;;8.20;99.90;;;;;;4858077;29;20073;-76
2022/05/11 03:03:20;;;;;;;11.10;3.00;;;8.10;99.90;;;;;;4868554;29;20203;-82
2022/05/11 03:05:47;;;;;;;6.88;2.40;;;8.10;99.90;;;;;;4865338;29;20051;-79
2022/05/11 03:08:13;;;;;;;6.43;3.25;;;8.10;99.90;;;;;;4849627;29;20067;-76
2022/05/11 03:10:41;;;;;;;6.82;3.15;;;8.10;99.90;;;;;;4857027;29;20025;-79
2022/05/11 03:18:17;;;;;;;3.25;2.08;;;8.10;99.90;;;;;;5329680;24;20573;-76
2022/05/11 03:20:43;;;;;;;6.53;2.10;;;8.20;99.90;;;;;;4870703;29;20030;-77
2022/05/11 03:23:09;;;;;;;4.57;2.78;;;8.30;99.90;;;;;;4863923;29;20045;-76
2022/05/11 03:25:35;;;;;;;7.10;3.38;;;8.30;99.90;;;;;;4868616;29;20032;-78
2022/05/11 03:28:01;;;;;;;5.43;2.45;;;8.30;99.90;;;;;;4864180;29;20030;-77
2022/05/11 03:30:27;;;;;;;10.27;2.90;;;8.40;99.90;;;;;;4861725;29;20645;-81
2022/05/11 03:35:36;;;;;;;;;;;8.30;99.90;;;;;;4872570;29;20035;-78
2022/05/11 03:38:03;;;;;;;6.45;3.53;;;8.30;99.90;;;;;;4875018;29;19940;-82
2022/05/11 03:40:29;;;;;;;6.97;2.63;;;8.20;99.90;;;;;;4867294;29;20034;-82
2022/05/11 03:42:55;;;;;;;6.63;2.45;;;8.20;99.90;;;;;;4869571;29;20029;-81
2022/05/11 03:45:25;;;;;;;5.68;2.50;;;8.20;99.90;;;;;;4870179;29;20032;-82
2022/05/11 03:47:51;;;;;;;7.43;3.10;;;8.20;99.90;;;;;;4866772;29;20709;-82
2022/05/11 03:50:22;;;;;;;7.63;2.55;;;8.10;99.90;;;;;;4875686;29;20066;-79
2022/05/11 03:52:49;;;;;;;5.55;2.72;;;8.10;99.90;;;;;;4875499;29;20691;-77
2022/05/11 03:55:15;;;;;;;10.48;2.67;;;8.10;99.90;;;;;;4875889;29;20021;-82
2022/05/11 03:57:41;;;;;;;8.75;3.05;;;8.10;99.90;;;;;;4877128;29;20033;-81
2022/05/11 04:00:18;;;;;;;6.97;3.08;;;8.10;99.90;;;;;;4878649;29;20040;-82
2022/05/11 04:02:45;;;;;;;6.35;3.05;;;8.00;99.90;;;;;;4876603;29;20033;-77
2022/05/11 04:34:24;;;;;;;9.60;2.38;;;9.80;99.90;;;;;;5023505;23;20144;-77
2022/05/11 04:36:51;;;;;;;7.53;3.28;;;8.40;99.90;;;;;;4890900;29;20025;-82
2022/05/11 04:39:17;;;;;;;6.68;2.85;;;8.50;99.90;;;;;;4890876;29;20092;-77
2022/05/11 04:41:43;;;;;;;5.93;2.55;;;8.50;99.90;;;;;;4889398;29;20612;-77
2022/05/11 04:44:09;;;;;;;10.27;3.38;;;8.70;99.90;;;;;;4889932;29;20039;-77
2022/05/11 04:46:38;;;;;;;11.85;5.30;;;8.80;99.90;;;;;;4890940;29;20686;-77
2022/05/11 04:49:16;;;;;;;10.32;5.20;;;8.90;99.90;;;;;;4889538;29;20056;-76
2022/05/11 04:51:43;;;;;;;10.77;5.28;;;9.00;99.90;;;;;;4871676;29;20033;-77
2022/05/11 04:54:09;;;;;;;8.25;4.55;;;9.10;99.90;;;;;;4888680;29;20029;-76
2022/05/11 04:56:38;;;;;;;9.35;4.20;;;9.10;99.90;;;;;;4889501;29;20048;-76
2022/05/11 04:59:05;;;;;;;7.32;3.75;;;9.00;99.90;;;;;;4887702;29;20023;-76
2022/05/11 05:01:31;;;;;;;11.60;3.88;;;9.10;99.90;;;;;;4878488;29;20630;-78
2022/05/11 05:03:57;;;;;;;9.75;4.70;;;9.10;99.90;;;;;;4895620;29;20071;-77
2022/05/11 05:06:22;;;;;;;7.75;3.85;;;9.30;99.90;;;;;;4894938;29;20029;-81
2022/05/11 05:08:51;;;;;;;10.85;4.68;;;9.40;99.90;;;;;;4892224;29;20031;-77
2022/05/11 05:11:16;;;;;;;5.72;2.55;;;9.40;99.90;;;;;;4890342;29;20025;-76
2022/05/11 05:13:42;;;;;;;6.38;3.03;;;9.50;99.90;;;;;;4876144;29;20687;-77
2022/05/11 05:16:10;;;;;;;7.97;3.38;;;9.60;99.90;;;;;;4896942;29;20031;-77
2022/05/11 05:18:36;;;;;;;11.48;4.32;;;9.70;99.90;;;;;;4895402;29;20111;-81
2022/05/11 05:21:02;;;;;;;6.25;3.05;;;9.80;99.90;;;;;;4879117;29;20055;-77
2022/05/11 05:23:27;;;;;;;9.73;3.60;;;9.70;99.90;;;;;;4894153;29;20020;-79
2022/05/11 05:25:53;;;;;;;5.22;2.53;;;9.90;99.90;;;;;;4893019;29;20089;-77
2022/05/11 05:31:09;;;;;;;11.38;3.60;;;10.10;99.90;;;;;;4891109;29;20100;-77
2022/05/11 05:33:38;;;;;;;8.45;3.97;;;10.20;99.90;;;;;;4889926;29;20075;-77
2022/05/11 05:36:05;;;;;;;8.18;3.03;;;10.20;99.90;;;;;;4873341;29;20029;-78
2022/05/11 05:38:31;;;;;;;5.97;3.00;;;10.40;99.90;;;;;;4894403;29;20111;-78
2022/05/11 05:40:56;;;;;;;8.75;4.03;;;10.50;99.90;;;;;;4893852;29;20082;-76
2022/05/11 05:43:23;;;;;;;8.40;3.55;;;10.50;99.90;;;;;;4891536;29;20040;-77
2022/05/11 05:45:51;;;;;;;10.18;3.28;;;10.50;99.90;;;;;;4875510;29;20221;-78
2022/05/11 05:48:19;;;;;;;9.93;4.68;;;10.60;99.90;;;;;;4876879;29;20127;-81
2022/05/11 05:50:47;;;;;;;9.52;4.25;;;10.80;99.90;;;;;;4887189;29;20024;-78
2022/05/11 05:53:14;;;;;;;12.55;4.28;;;10.60;99.90;;;;;;4870676;29;20039;-83
2022/05/11 05:55:43;;;;;;;9.25;3.33;;;10.70;99.90;;;;;;4889627;29;20628;-77
2022/05/11 05:58:09;;;;;;;9.55;3.47;;;10.90;99.90;;;;;;4890345;29;20750;-79
2022/05/11 06:00:35;;;;;;;12.82;3.78;;;11.10;99.90;;;;;;4888604;29;20080;-78
2022/05/11 06:03:01;;;;;;;6.30;3.40;;;11.20;99.90;;;;;;4886611;29;20053;-80
2022/05/11 06:05:28;;;;;;;9.60;3.67;;;11.40;99.90;;;;;;4885585;29;20109;-78
2022/05/11 06:07:55;;;;;;;8.73;4.22;;;11.50;99.50;;;;;;4868403;29;20020;-80
2022/05/11 06:10:21;;;;;;;7.72;3.13;;;11.70;99.20;;;;;;4884629;29;20560;-84
2022/05/11 06:12:47;;;;;;;7.13;2.95;;;11.90;99.10;;;;;;4884555;29;20021;-77
2022/05/11 06:15:14;;;;;;;8.52;3.55;;;12.00;98.80;;;;;;4884534;29;20308;-83
2022/05/11 06:17:40;;;;;;;9.93;3.53;;;12.10;98.90;;;;;;4884590;29;20123;-85
2022/05/11 06:20:08;;;;;;;8.25;2.72;;;12.30;98.50;;;;;;4868317;29;20120;-79
2022/05/11 06:38:45;;;;;;;8.90;4.78;;;13.20;95.50;;;;;;4825304;29;20570;-85
2022/05/11 06:48:48;;;;;;;11.32;5.47;;;14.00;95.70;;;;;;5337947;23;20120;-88
2022/05/11 06:51:21;;;;;;;10.73;5.13;;;13.70;95.20;;;;;;4867716;29;20088;-86
2022/05/11 06:59:25;;;;;;;11.15;5.15;;;14.00;94.80;;;;;;4883778;29;20040;-77
2022/05/11 07:01:58;;;;;;;9.25;5.65;;;14.10;94.70;;;;;;4883481;29;20035;-77
2022/05/11 07:04:26;;;;;;;12.05;4.32;;;14.30;94.30;;;;;;4882951;29;20036;-85
2022/05/11 07:06:54;;;;;;;8.48;4.07;;;14.50;93.90;;;;;;4883534;29;20520;-81
2022/05/11 07:09:27;;;;;;;7.97;3.80;;;14.60;94.10;;;;;;4884387;29;20029;-85
2022/05/11 07:14:38;;;;;;;9.75;4.55;;;14.90;93.10;;;;;;4884057;29;20084;-86
2022/05/11 07:17:04;;;;;;;11.23;4.88;;;15.00;93.00;;;;;;4867646;29;20040;-86
2022/05/11 07:19:30;;;;;;;12.32;3.92;;;15.10;93.00;;;;;;4884141;29;20028;-82
2022/05/11 07:21:56;;;;;;;12.77;5.43;;;15.20;92.80;;;;;;4884108;29;20029;-80
2022/05/11 07:24:22;;;;;;;7.70;3.30;;;15.30;92.30;;;;;;4866712;29;20556;-86
2022/05/11 07:26:48;;;;;;;8.80;4.00;;;15.50;92.10;;;;;;4884015;29;20060;-87
2022/05/11 07:29:14;;;;;;;10.77;4.82;;;15.50;92.00;;;;;;4884023;29;20511;-87
2022/05/11 07:31:41;;;;;;;9.93;4.40;;;15.60;91.70;;;;;;4879491;29;20033;-85
2022/05/11 07:34:07;;;;;;;9.40;4.57;;;15.70;91.40;;;;;;4871446;29;20032;-90
2022/05/11 07:36:32;;;;;;;11.00;4.15;;;15.80;91.30;;;;;;4849478;29;20017;-88
2022/05/11 07:38:59;;;;;;;10.38;4.45;;;;;;;;;;4867063;29;20032;-84
2022/05/11 07:41:25;;;;;;;7.03;3.20;;;16.00;90.90;;;;;;4866328;29;20733;-87
2022/05/11 07:43:50;;;;;;;9.15;4.10;;;16.20;90.80;;;;;;4866115;29;20025;-88
2022/05/11 07:46:16;;;;;;;8.48;4.35;;;16.40;90.00;;;;;;4866221;29;20575;-82
2022/05/11 07:48:42;;;;;;;8.73;4.47;;;15.90;90.50;;;;;;4884173;29;20169;-80
2022/05/11 07:51:08;;;;;;;9.13;4.25;;;16.40;90.20;;;;;;4883446;29;20028;-86
2022/05/11 07:53:34;;;;;;;8.32;3.70;;;16.70;88.40;;;;;;4872974;23;20017;-84
2022/05/11 08:01:28;;;;;;;11.68;4.72;;;17.10;87.60;;;;;;4883963;29;20139;-79
2022/05/11 08:03:54;;;;;;;8.23;4.10;;;17.20;87.00;;;;;;4883720;29;20040;-79
2022/05/11 08:06:20;;;;;;;9.48;4.15;;;17.20;87.90;;;;;;4883480;29;20709;-81
2022/05/11 08:08:46;;;;;;;11.43;4.05;;;17.40;87.90;;;;;;4865825;29;20033;-86
2022/05/11 08:11:12;;;;;;;11.60;4.07;;;17.50;86.10;;;;;;4883269;29;20096;-79
2022/05/11 08:13:38;;;;;;;10.20;3.85;;;17.60;86.90;;;;;;4884059;29;20108;-84
2022/05/11 08:16:04;;;;;;;8.45;4.25;;;17.70;87.80;;;;;;4886590;29;20092;-80
2022/05/11 08:18:35;;;;;;;11.40;4.57;;;18.00;86.10;;;;;;4886351;29;20231;-94
2022/05/11 08:49:50;;;;;;;8.93;4.80;;;19.50;80.10;;;;;;5516014;23;20124;-78
2022/05/11 08:52:34;;;;;;;12.25;6.47;;;19.80;80.10;;;;;;4872979;29;20013;-78
2022/05/11 08:55:28;;;;;;;12.02;5.90;;;19.80;78.60;;;;;;4885672;29;20029;-81
2022/05/11 08:57:54;;;;;;;11.90;5.00;;;;;;;;;;4885709;29;20523;-80
2022/05/11 09:00:21;;;;;;;8.82;4.13;;;20.10;79.00;;;;;;4869130;29;20040;-80
2022/05/11 09:03:12;;;;;;;11.10;5.03;;;20.30;79.40;;;;;;4885776;29;20044;-82
2022/05/11 09:05:38;;;;;;;9.40;4.80;;;20.40;78.40;;;;;;4885364;29;20024;-81
2022/05/11 09:08:06;;;;;;;10.85;5.70;;;20.70;79.30;;;;;;4885712;29;20123;-82
2022/05/11 09:10:37;;;;;;;9.38;4.63;;;20.70;79.00;;;;;;4885028;29;20020;-82
2022/05/11 09:13:10;;;;;;;11.55;4.82;;;20.90;76.20;;;;;;4885501;29;20023;-80
2022/05/11 09:15:59;;;;;;;7.95;3.58;;;21.00;76.10;;;;;;4884948;29;20017;-82
2022/05/11 09:18:31;;;;;;;13.25;6.10;;;21.70;78.80;;;;;;4885077;29;20063;-78
2022/05/11 09:21:02;;;;;;;12.13;5.53;;;21.20;75.40;;;;;;4885079;29;20061;-78
2022/05/11 09:23:37;;;;;;;9.75;5.15;;;21.20;75.10;;;;;;4885226;29;20053;-79
2022/05/11 09:26:07;;;;;;;12.32;5.50;;;21.20;75.90;;;;;;4885344;29;20671;-82
2022/05/11 09:28:35;;;;;;;9.18;4.45;;;21.40;75.00;;;;;;4884918;29;20329;-80
2022/05/11 09:31:08;;;;;;;15.18;6.05;;;21.60;74.60;;;;;;4885160;29;20016;-80
2022/05/11 09:33:38;;;;;;;13.20;5.00;;;21.80;73.80;;;;;;4884936;29;20251;-78
2022/05/11 09:36:05;;;;;;;10.75;4.80;;;21.90;73.10;;;;;;4885054;29;20112;-79
2022/05/11 09:38:43;;;;;;;11.55;5.55;;;22.00;71.60;;;;;;4885263;29;20045;-79
2022/05/11 09:41:17;;;;;;;9.73;4.90;;;22.10;72.30;;;;;;4884617;29;20044;-82
2022/05/11 09:43:50;;;;;;;9.07;4.07;;;23.00;75.10;;;;;;4885154;29;20184;-83
2022/05/11 09:46:27;;;;;;;11.47;4.67;;;22.40;71.40;;;;;;4868342;29;20643;-80
2022/05/11 09:49:19;;;;;;;9.02;4.80;;;22.40;71.70;;;;;;4884204;29;20873;-79
2022/05/11 09:51:50;;;;;;;10.25;5.53;;;22.30;71.20;;;;;;4880680;29;20103;-79
2022/05/11 09:54:32;;;;;;;11.88;5.97;;;22.40;71.80;;;;;;4884999;29;20028;-81
2022/05/11 09:57:26;;;;;;;10.98;5.38;;;22.40;70.80;;;;;;4884355;29;20027;-79
2022/05/11 09:59:56;;;;;;;9.93;4.80;;;22.50;71.30;;;;;;4882975;29;20024;-82
2022/05/11 10:02:35;;;;;;;16.25;6.75;;;22.80;70.60;;;;;;4884245;29;20037;-80
2022/05/11 10:05:15;;;;;;;15.73;6.40;;;23.00;70.70;;;;;;4884326;29;20016;-79
2022/05/11 10:08:25;;;;;;;10.32;5.75;;;22.90;69.30;;;;;;4884281;29;20052;-80
2022/05/11 10:10:55;;;;;;;11.80;4.85;;;22.90;68.20;;;;;;4807580;29;20548;-82
2022/05/11 10:13:21;;;;;;;9.25;4.13;;;22.90;68.00;;;;;;4807658;29;20051;-79
2022/05/11 10:21:56;;;;;;;7.53;4.10;;;24.20;66.80;;;;;;4807049;29;20123;-78
2022/05/11 10:24:46;;;;;;;9.73;3.92;;;23.30;66.30;;;;;;4721491;30;20091;-81
2022/05/11 10:27:44;;;;;;;9.35;4.10;;;23.40;65.50;;;;;;4736147;30;20107;-81
2022/05/11 10:30:24;;;;;;;8.80;4.22;;;23.50;64.50;;;;;;4735336;30;20040;-78
2022/05/11 10:33:01;;;;;;;10.18;4.38;;;24.60;63.50;;;;;;4720836;30;20206;-80
2022/05/11 10:35:51;;;;;;;6.72;3.60;;;24.00;62.40;;;;;;4735667;30;20036;-79
2022/05/11 10:38:26;;;;;;;8.27;3.63;;;24.20;60.80;;;;;;4735483;30;20028;-77
2022/05/11 10:40:57;;;;;;;6.03;3.13;;;24.20;61.00;;;;;;4735449;29;20645;-79
2022/05/11 10:43:50;;;;;;;9.52;4.25;;;24.60;61.00;;;;;;4735524;30;20048;-81
2022/05/11 10:46:26;;;;;;;8.23;3.95;;;24.90;58.60;;;;;;4735570;30;20037;-81
2022/05/11 10:49:14;;;;;;;7.82;3.33;;;25.00;58.10;;;;;;4806556;29;20039;-81
2022/05/11 10:52:00;;;;;;;9.40;3.55;;;24.80;56.90;;;;;;4807121;29;20114;-82
2022/05/11 10:54:57;;;;;;;6.55;3.08;;;24.70;57.70;;;;;;4791799;29;20048;-82
2022/05/11 10:57:47;;;;;;;6.72;3.20;;;24.60;57.50;;;;;;4806674;29;20074;-81
2022/05/11 11:00:19;;;;;;;6.95;3.63;;;24.60;58.00;;;;;;4811280;29;20369;-80
2022/05/11 11:03:22;;;;;;;8.18;3.35;;;24.70;58.10;;;;;;4883267;29;20539;-80
2022/05/11 11:08:50;;;;;;;6.47;3.60;;;24.90;56.90;;;;;;4883261;29;20320;-78
2022/05/11 11:11:44;;;;;;;5.27;2.67;;;24.90;56.40;;;;;;4865811;29;20824;-79
2022/05/11 11:14:11;;;;;;;6.80;3.28;;;25.00;56.10;;;;;;4883950;29;20675;-79
2022/05/11 11:16:39;;;;;;;6.75;3.22;;;25.10;55.20;;;;;;4883155;29;20052;-82
2022/05/11 11:19:07;;;;;;;8.48;3.80;;;25.30;54.50;;;;;;4883096;29;20725;-79
2022/05/11 11:21:33;;;;;;;7.78;3.80;;;25.20;54.20;;;;;;4882932;29;20135;-81
2022/05/11 11:24:11;;;;;;;6.70;3.05;;;25.50;55.20;;;;;;4883274;29;20016;-82
2022/05/11 11:27:05;;;;;;;9.18;3.05;;;23.10;52.10;;;;;;4882970;29;20036;-81
2022/05/11 11:29:35;;;;;;;7.72;3.90;;;26.00;53.00;;;;;;4883072;29;20807;-80
2022/05/11 11:32:06;;;;;;;5.80;2.70;;;26.20;51.40;;;;;;4883134;29;20080;-83
2022/05/11 11:35:10;;;;;;;8.57;3.30;;;26.30;51.70;;;;;;4866237;29;20042;-81
2022/05/11 11:37:40;;;;;;;7.72;3.15;;;26.90;51.40;;;;;;4866012;29;20055;-79
2022/05/11 11:40:21;;;;;;;5.30;2.70;;;27.00;50.60;;;;;;4882897;29;20092;-79
2022/05/11 11:42:47;;;;;;;6.85;3.25;;;27.30;50.10;;;;;;4883003;29;20040;-79
2022/05/11 11:45:29;;;;;;;8.43;3.03;;;27.50;49.00;;;;;;4883285;29;20534;-83
2022/05/11 11:48:18;;;;;;;6.22;2.92;;;27.50;48.90;;;;;;4882719;29;20024;-82
2022/05/11 11:51:02;;;;;;;5.63;2.67;;;27.60;48.80;;;;;;4882811;29;20199;-83
2022/05/11 11:53:56;;;;;;;5.43;2.78;;;27.50;46.10;;;;;;4880896;29;20021;-83
2022/05/11 11:56:25;;;;;;;6.70;2.80;;;27.40;47.00;;;;;;4882369;29;20036;-81
2022/05/11 11:59:09;;;;;;;7.53;2.60;;;27.50;46.60;;;;;;4866191;29;20024;-79
2022/05/11 12:01:46;;;;;;;5.28;2.53;;;27.70;45.10;;;;;;4882511;29;20033;-80
2022/05/11 12:04:38;;;;;;;8.43;2.78;;;27.90;44.60;;;;;;4883150;29;20108;-81
2022/05/11 12:16:08;;;;;;;5.60;3.00;;;28.50;43.20;;;;;;4808362;29;20064;-79
2022/05/11 12:18:39;;;;;;;6.70;2.45;;;28.20;42.30;;;;;;4806783;29;20332;-79
2022/05/11 12:21:30;;;;;;;6.63;3.10;;;28.20;42.10;;;;;;4807612;29;20038;-85
2022/05/11 12:23:59;;;;;;;5.53;2.40;;;28.50;41.20;;;;;;4807620;29;20053;-84
2022/05/11 12:26:33;;;;;;;6.50;2.80;;;29.20;41.30;;;;;;4809302;29;20030;-84
2022/05/11 12:31:57;;;;;;;6.63;2.40;;;29.80;39.60;;;;;;4806820;29;20169;-80
2022/05/11 12:34:26;;;;;;;5.85;2.20;;;29.90;39.60;;;;;;4807312;29;20126;-83
2022/05/11 12:36:53;;;;;;;7.38;1.83;;;29.80;38.20;;;;;;4806337;29;20866;-84
2022/05/11 12:39:36;;;;;;;5.55;2.35;;;30.00;39.00;;;;;;4806047;29;20034;-81
2022/05/11 12:42:03;;;;;;;5.22;2.35;;;30.10;38.60;;;;;;4805698;29;20039;-81
2022/05/11 12:44:31;;;;;;;6.93;2.40;;;30.70;38.50;;;;;;4838507;29;20173;-80
2022/05/11 12:47:01;;;;;;;6.32;2.50;;;30.90;39.50;;;;;;4882217;29;20016;-82
2022/05/11 12:49:28;;;;;;;4.65;2.08;;;31.60;38.30;;;;;;4882427;29;20028;-91
2022/05/11 12:52:03;;;;;;;6.22;2.80;;;31.90;37.90;;;;;;4865969;29;20672;-86
2022/05/11 12:54:31;;;;;;;5.55;2.10;;;31.80;36.80;;;;;;4884459;29;20253;-84
2022/05/11 12:56:59;;;;;;;5.55;2.28;;;31.70;36.40;;;;;;4902999;29;20016;-86
2022/05/11 12:59:28;;;;;;;4.55;2.72;;;31.90;36.30;;;;;;4902201;29;20068;-89
2022/05/11 13:02:17;;;;;;;7.70;2.13;;;31.80;35.40;;;;;;4906498;29;20087;-82
2022/05/11 13:04:50;;;;;;;6.22;2.15;;;31.70;35.30;;;;;;4902135;29;20222;-79
2022/05/11 13:07:18;;;;;;;5.88;2.08;;;31.60;35.60;;;;;;4901986;29;20020;-86
2022/05/11 13:09:49;;;;;;;3.88;2.08;;;32.20;37.20;;;;;;4903444;29;20282;-88
2022/05/11 13:12:16;;;;;;;3.13;1.65;;;34.80;37.10;;;;;;4887460;29;20043;-83
2022/05/11 13:14:54;;;;;;;6.05;2.40;;;33.60;35.40;;;;;;4903487;29;20044;-83
2022/05/11 13:18:01;;;;;;;7.47;2.50;;;33.90;35.00;;;;;;4886183;29;20026;-93
2022/05/11 13:20:44;;;;;;;7.18;2.80;;;34.20;35.10;;;;;;4902464;29;20020;-89
2022/05/11 13:23:46;;;;;;;5.60;2.00;;;34.40;33.70;;;;;;4883784;29;20112;-83
2022/05/11 13:26:36;;;;;;;;;;;34.60;33.70;;;;;;4883694;29;20016;-80
2022/05/11 13:29:17;;;;;;;4.00;2.10;;;34.80;32.80;;;;;;4893284;24;19930;-80
2022/05/11 13:32:09;;;;;;;3.92;1.67;;;34.60;32.80;;;;;;4906220;23;20055;-82
2022/05/11 13:34:45;;;;;;;4.43;1.83;;;35.20;32.30;;;;;;4885483;29;20606;-89
2022/05/11 13:37:30;;;;;;;4.05;1.85;;;35.40;32.30;;;;;;4905589;29;20032;-83
2022/05/11 13:39:57;;;;;;;2.60;1.50;;;35.20;30.50;;;;;;4905679;29;20024;-78
2022/05/11 13:55:33;;;;;;;4.35;1.70;;;32.40;31.80;;;;;;5778059;23;20440;-79
2022/05/11 13:58:23;;;;;;;2.17;1.23;;;32.50;32.70;;;;;;4846737;29;20080;-86
2022/05/11 14:00:50;;;;;;;5.20;2.05;;;32.90;31.90;;;;;;4847687;29;20049;-80
2022/05/11 14:03:19;;;;;;;4.57;1.60;;;33.20;31.50;;;;;;4848345;29;20097;-82
2022/05/11 14:05:45;;;;;;;2.22;1.20;;;34.00;30.50;;;;;;4833612;29;20040;-92
2022/05/11 14:08:12;;;;;;;3.28;1.50;;;34.60;31.30;;;;;;4852654;29;20025;-82
2022/05/11 14:10:39;;;;;;;3.58;1.83;;;35.10;30.00;;;;;;4853691;29;20018;-86
2022/05/11 14:13:05;;;;;;;2.80;1.55;;;35.20;30.00;;;;;;4871922;29;20021;-87
2022/05/11 14:15:31;;;;;;;4.43;1.80;;;35.50;29.80;;;;;;4854167;29;20085;-82
2022/05/11 14:18:00;;;;;;;4.53;1.67;;;35.90;31.00;;;;;;4869525;29;20021;-85
2022/05/11 14:20:27;;;;;;;4.38;1.63;;;36.50;32.70;;;;;;4866180;29;20106;-84
2022/05/11 14:22:53;;;;;;;3.83;1.73;;;37.10;30.00;;;;;;4865981;29;20068;-83
2022/05/11 14:25:23;;;;;;;7.07;1.95;;;37.50;28.90;;;;;;4868817;29;20060;-79
2022/05/11 14:27:49;;;;;;;6.47;1.98;;;37.90;29.20;;;;;;4866910;29;20644;-82
2022/05/11 14:30:15;;;;;;;4.68;2.13;;;35.50;28.50;;;;;;4866878;29;20032;-77
2022/05/11 14:32:45;;;;;;;2.92;1.50;;;36.20;29.00;;;;;;4866248;29;20059;-80
2022/05/11 14:35:15;;;;;;;3.45;1.70;;;33.60;27.60;;;;;;4866171;29;20025;-81
2022/05/11 14:37:41;;;;;;;4.05;1.80;;;36.00;28.30;;;;;;4866664;29;20029;-78
2022/05/11 14:40:08;;;;;;;4.10;1.80;;;35.80;28.50;;;;;;4865813;29;20013;-81
2022/05/11 14:42:34;;;;;;;3.22;1.85;;;35.30;29.20;;;;;;4866021;29;20037;-84
2022/05/11 14:45:01;;;;;;;3.58;1.85;;;35.60;29.70;;;;;;4866404;29;20029;-81
2022/05/11 14:47:27;;;;;;;4.30;2.03;;;35.70;29.30;;;;;;4866382;29;20029;-84
2022/05/11 14:49:53;;;;;;;6.78;2.25;;;36.20;29.20;;;;;;4866752;29;20024;-82
2022/05/11 14:52:19;;;;;;;3.33;1.90;;;36.00;29.30;;;;;;4866501;29;20625;-83
2022/05/11 14:54:46;;;;;;;3.42;2.10;;;36.50;29.80;;;;;;4866383;29;20076;-82
2022/05/11 15:02:44;;;;;;;9.63;2.25;;;36.90;29.10;;;;;;4865470;29;20093;-79
2022/05/11 15:05:15;;;;;;;3.78;1.75;;;36.90;28.40;;;;;;4850286;29;20029;-84
2022/05/11 15:07:41;;;;;;;3.05;1.60;;;36.50;28.20;;;;;;4853245;29;20088;-78
2022/05/11 15:10:08;;;;;;;3.42;1.65;;;36.00;28.00;;;;;;4865869;29;20076;-87
2022/05/11 15:15:19;;;;;;;3.53;1.60;;;34.80;28.40;;;;;;4866538;29;20727;-77
2022/05/11 15:17:45;;;;;;;4.63;2.78;;;34.70;28.60;;;;;;4865344;29;20037;-83
2022/05/11 15:20:13;;;;;;;4.45;2.20;;;34.80;28.60;;;;;;4865925;29;20049;-83
2022/05/11 15:22:39;;;;;;;6.57;1.88;;;34.80;29.00;;;;;;4865842;29;20037;-79
2022/05/11 15:25:06;;;;;;;4.15;1.90;;;34.40;29.20;;;;;;4865054;29;20084;-84
2022/05/11 15:27:35;;;;;;;4.47;1.95;;;34.40;28.90;;;;;;4865437;29;20611;-87
2022/05/11 15:30:02;;;;;;;4.32;2.00;;;34.10;29.60;;;;;;4865213;29;20029;-84
2022/05/11 15:32:29;;;;;;;3.80;2.13;;;34.10;29.40;;;;;;4847745;29;20064;-80
2022/05/11 15:34:56;;;;;;;5.05;2.28;;;33.70;29.20;;;;;;4865284;29;20377;-84
2022/05/11 15:37:22;;;;;;;7.30;2.53;;;33.70;29.10;;;;;;4864733;29;20017;-79
2022/05/11 15:39:48;;;;;;;5.53;2.15;;;33.60;29.10;;;;;;4848364;29;20538;-82
2022/05/11 15:42:17;;;;;;;4.60;1.80;;;33.60;29.70;;;;;;4848088;29;20029;-77
2022/05/11 15:44:44;;;;;;;3.67;1.77;;;33.70;29.00;;;;;;4865256;29;20040;-84
2022/05/11 15:47:10;;;;;;;5.05;2.22;;;33.70;30.00;;;;;;4864920;29;20100;-83
2022/05/11 15:49:37;;;;;;;6.60;2.20;;;34.00;29.20;;;;;;4865072;29;20060;-78
2022/05/11 15:52:05;;;;;;;4.88;2.25;;;34.00;29.30;;;;;;4864438;29;20033;-77
2022/05/11 15:54:32;;;;;;;7.88;3.65;;;33.70;28.70;;;;;;4864173;29;20368;-79
2022/05/11 15:56:58;;;;;;;5.00;2.45;;;33.70;29.40;;;;;;4864651;29;20091;-81
2022/05/11 15:59:25;;;;;;;7.22;2.38;;;33.80;29.40;;;;;;4867491;29;20053;-84
2022/05/11 16:01:51;;;;;;;4.10;1.90;;;33.70;29.10;;;;;;4848445;29;20041;-77
2022/05/11 16:04:17;;;;;;;5.30;2.42;;;33.90;29.70;;;;;;4865241;29;20029;-80
2022/05/11 16:06:43;;;;;;;5.25;2.08;;;33.60;29.70;;;;;;4864920;29;20036;-81
2022/05/11 16:09:10;;;;;;;6.70;2.67;;;33.90;29.80;;;;;;4864661;29;20013;-78